Nast, Colorado
Current Conditions -  °F | °C
As of 2:53 PM on Friday 31 Oct 2014 (Local Time) from KLXV Reporting Station
Clear Clear  
Wind Chill: 53°   Ceiling: Unl
Heat Index: 53°   Visibility: 10mi
Dew Point: 10°   Wind: 7mph
Humidity: 18%   Direction: NA
Pressure: 30.3"   Gusts: NA
Location:  39.3236°N, 106.55°W
Report Text: KLXV 312053Z AUTO VRB06KT 10SM CLR 12/M12 A3030 RMK AO2 SLP154 T01171122 56021
Loading
Personal Weather Stations






























Interactive Weather Map
Tropical Storm Tracking
New forecast layout! Learn more

10-Day Weather Forecast

Advertisements
Track Severe Weather on mobile